Terminal Aerodrome Forecast
Issued by NWS Atlanta, GA

Home | Current Version | Previous Version | Text Only | Print | Product List | Glossary On
Versions: 1 2 3 4 5 6 7 8 9 10 11 12 13 14 15 16 17 18 19 20 21 22 23 24 25 26 27 28 29 30 31 32 33 34 35 36 37
770
FTUS42 KFFC 191359 AAA
TAFATL
TAF AMD
KATL 191359Z 1914/2018 11007KT 1SM -DZ BR OVC003
      TEMPO 1914/1915 1/2SM FG VV002
     FM191600 12007KT 5SM BR OVC007
     FM191700 13007KT P6SM BKN012
     FM192000 15008KT P6SM BKN025 OVC045
     FM200300 14006KT P6SM BKN015
     FM201100 14006KT 3SM BR BKN007
     FM201600 15007KT P6SM BKN010=

USA.gov is the U.S. government's official web portal to all federal, state and local government web resources and services.